Whale Point, California Weather observations

Data are for observation ending at time listed.
 Day   Time    Ave.   Ave.  Ave.  Vector   Max.   Stn.    Total    Solar   Ave.  
  of    of     Air    Rel.  Wind   Wind    Wind   Baro.  Precip.   Rad.    Soil  
Year   Day     Temp.  Hum.  Speed  Dir.    Gust   Pres.                    Temp. 
2014   (PST)    F      %     mph   deg.    mph     mb.     in.     W/m2     F   
------------------------------------------------------------------------------
 297   10:40   58.9    84    3.0   230      5.3   994.6    0.00     472    67.5
 297   10:50   59.4    83    3.0   242      6.2   994.6    0.00     450    67.6
 297   11:00   60.5    80    5.0   228      6.9   994.6    0.00     721    67.6
 297   11:10   60.7    80    4.8   216      6.6   994.6    0.00     714    67.6
 297   11:20   61.0    80    4.9   222      6.9   994.6    0.00     717    67.6
 297   11:30   61.0    79    4.8   218      7.4   994.2    0.00     722    67.6
 297   11:40   61.2    79    5.1   218      7.7   994.2    0.00     725    67.7
 297   11:50   61.6    78    5.5   211      7.9   993.9    0.00     725    67.7
 297   12:00   61.1    78    6.0   222      9.1   993.9    0.00     725    67.7
 297   12:10   60.5    80    6.1   217      9.1   993.9    0.00     722    67.8
 297   12:20   61.0    78    5.9   215      9.4   993.9    0.00     717    67.9
 297   12:30   60.8    79    5.9   218      8.3   993.6    0.00     711    67.9
 297   12:40   60.8    80    6.4   225      9.7   993.6    0.00     703    68.0
 297   12:50   60.9    79    5.7   223      8.6   993.6    0.00     695    68.0
 297   13:00   61.5    77    5.5   226      7.8   993.2    0.00     685    68.1
 297   13:10   61.8    76    5.6   229      7.6   993.2    0.00     673    68.1
 297   13:20   61.9    76    5.8   226      8.2   993.2    0.00     658    68.2
 297   13:30   62.4    75    5.5   225      7.7   993.2    0.00     642    68.3
 297   13:40   62.3    74    5.7   226      8.8   993.2    0.00     624    68.4
 297   13:50   63.8    72    5.4   222      8.9   993.2    0.00     604    68.5
 297   14:00   63.2    73    4.9   228      7.8   993.2    0.00     581    68.6
 297   14:10   63.1    73    4.7   232      6.9   993.2    0.00     558    68.7
 297   14:20   62.7    74    4.9   230      7.3   993.2    0.00     534    68.8
 297   14:30   63.9    72    5.2   226      9.5   993.2    0.00     509    68.9
 297   14:40   63.6    73    5.4   230      7.4   993.2    0.00     483    69.0
 297   14:50   63.5    73    5.3   231      7.7   993.2    0.00     456    69.1
 297   15:00   63.5    73    5.3   229      7.7   993.2    0.00     426    69.2
 297   15:10   63.6    73    4.7   231      7.5   993.2    0.00     400    69.3
 297   15:20   63.2    74    5.2   236      7.8   993.2    0.00     369    69.4
 297   15:30   63.2    74    5.3   231      7.5   993.2    0.00     266    69.5
 297   15:40   61.0    79    4.2   234      6.2   993.6    0.00     155    69.7
 297   15:50   59.7    83    4.2   227      6.3   993.2    0.00      94    69.8
 297   16:00   59.3    84    3.8   231      5.6   993.2    0.00      68    69.9
 297   16:10   59.2    85    3.0   233      4.5   993.2    0.00      51    70.0
 297   16:20   58.8    86    2.5   233      3.8   993.2    0.00      47    70.1
 297   16:30   58.8    86    3.0   225      4.2   992.9    0.00      21    70.2
 297   16:40   58.7    86    3.1   226      4.4   992.9    0.00      16    70.3
 297   16:50   58.6    87    2.9   238      4.3   993.2    0.00      20    70.4
 297   17:00   58.7    86    2.5   252      3.8   993.2    0.00      15    70.4
 297   17:10   58.5    87    2.3   234      3.2   993.2    0.00       4    70.5
 297   17:20   58.4    87    1.9   242      3.3   993.2    0.00       1    70.6
 297   17:30   58.3    87    1.4   236      3.2   993.2    0.00       1    70.6
 297   17:40   58.0    87    5.9    36      9.6   993.2    0.00       1    70.7
 297   17:50   57.8    87    7.0    47      9.8   993.2    0.00       0    70.8
 297   18:00   58.0    86    7.6    65     10.3   993.2    0.00       0    70.8
 297   18:10   58.4    85    5.9    66      9.3   993.2    0.00       0    70.8
 297   18:20   58.7    84    5.0    54      6.9   993.2    0.00       0    70.9
 297   18:30   59.0    83    4.5    60      5.9   993.6    0.00       0    70.9
 297   18:40   59.0    82    5.8    62      8.0   993.6    0.00       0    70.9
 297   18:50   58.7    82    8.2    59     11.2   993.2    0.00       0    70.9
 297   19:00   58.5    81    8.4    53     11.6   993.2    0.00       0    70.9
 297   19:10   58.6    80    7.8    54      9.5   993.6    0.00       0    70.9
 297   19:20   58.5    80    6.9    57      8.8   993.6    0.00       0    70.9
 297   19:30   58.8    78    6.0    68      9.2   993.9    0.00       0    70.9
 297   19:40   58.9    76    7.9    75     10.9   993.9    0.00       0    70.8
 297   19:50   59.2    74    7.2    74      9.6   993.9    0.00       0    70.8
 297   20:00   59.1    73    6.6    69      9.6   994.2    0.00       0    70.8
 297   20:10   58.5    74    8.0    65     10.5   994.2    0.00       0    70.8
 297   20:20   58.5    73    7.7    65      9.6   994.2    0.00       0    70.7
 297   20:30   58.8    72    7.4    63      9.2   994.2    0.00       0    70.7
 297   20:40   59.1    71    7.2    64      9.3   994.2    0.00       0    70.6
 297   20:50   59.4    70    7.3    65      8.9   994.2    0.00       0    70.6
 297   21:00   59.3    68    6.8    68      9.1   994.2    0.00       0    70.5
 297   21:10   59.3    66    5.7    67      7.7   994.6    0.00       0    70.5
 297   21:20   59.3    65    6.6    63      9.6   994.6    0.00       0    70.4
 297   21:30   59.6    65    8.7    54     11.7   994.6    0.00       0    70.4
 297   21:40   59.2    66    9.4    66     12.3   994.6    0.00       0    70.3
 297   21:50   59.5    65    9.5    58     11.5   994.6    0.00       0    70.3
 297   22:00   59.8    66    9.3    55     11.5   994.6    0.00       0    70.2
 297   22:10   59.7    66    9.0    61     11.3   994.6    0.00       0    70.1
 297   22:20   60.0    66    9.2    52     11.7   994.6    0.00       0    70.1
 297   22:30   60.4    67    9.2    44     11.5   994.9    0.00       0    70.0
 297   22:40   60.7    66    9.5    61     12.3   994.9    0.00       0    69.9
 297   22:50   60.7    65    9.7    65     12.3   994.9    0.00       0    69.9
 297   23:00   61.2    66    7.7    68     11.7   994.9    0.00       0    69.8
 297   23:10   62.6    66    3.0    81      9.7   995.3    0.00       0    69.7
 297   23:20   63.4    65    2.0    63      3.8   995.3    0.00       0    69.6
 297   23:30   62.6    65    7.3    68     11.2   994.9    0.00       0    69.6
 297   23:40   61.8    67    6.6    69     10.6   994.9    0.00       0    69.5
 297   23:50   62.3    67    5.8    41      8.4   994.9    0.00       0    69.5
 298    0:00   63.0    67    6.5    45     10.7   994.6    0.00       0    69.4
 298    0:10   63.0    67    5.0    65      8.1   994.9    0.00       0    69.4
 298    0:20   63.5    65    5.6    79     10.5   994.6    0.00       0    69.3
 298    0:30   63.9    64    5.2    65      9.1   994.9    0.00       0    69.3
 298    0:40   64.0    65    4.3    84      7.2   994.9    0.00       0    69.2
 298    0:50   64.5    64    4.3    58      6.9   994.9    0.00       0    69.2
 298    1:00   63.6    66    2.4   150      5.3   994.9    0.00       0    69.1
 298    1:10   61.2    73    2.5   197      5.1   995.3    0.00       0    69.1
 298    1:20   60.1    77    2.0   359      6.3   995.3    0.00       0    69.1
 298    1:30   61.0    74    4.2    65      7.5   994.9    0.00       0    69.0
 298    1:40   63.1    68    4.5    74      6.9   994.9    0.00       0    69.0
 298    1:50   63.9    65    3.0    79      7.5   994.6    0.00       0    69.0
 298    2:00   64.8    63    2.6    99      6.0   994.6    0.00       0    69.0
 298    2:10   64.9    63    3.7    72      7.2   994.6    0.00       0    68.9
 298    2:20   64.5    64    4.8    60      6.9   994.2    0.00       0    68.9
 298    2:30   64.8    63    2.4   108      5.0   994.2    0.00       0    68.9
 298    2:40   62.6    69    1.6   163      3.7   994.2    0.00       0    68.9
 298    2:50   61.7    72    0.7   219      2.6   994.2    0.00       0    68.9
 298    3:00   61.1    76    1.8   194      4.6   994.2    0.00       0    68.8
 298    3:10   60.6    79    2.6   200      6.7   994.2    0.00       0    68.8
 298    3:20   60.2    81    1.3   198      4.7   994.2    0.00       0    68.8
 298    3:30   60.1    82    2.3    89      6.6   994.2    0.00       0    68.7
 298    3:40   60.2    81    3.2    50      6.7   994.6    0.00       0    68.7
 298    3:50   60.2    81    2.3   189      5.0   994.6    0.00       0    68.7
 298    4:00   60.1    82    1.8   142      6.6   994.2    0.00       0    68.7
 298    4:10   59.9    82    3.2    24      8.3   994.2    0.00       0    68.7
 298    4:20   60.0    81    5.1    89     10.2   994.2    0.00       0    68.6
 298    4:30   59.9    82    1.6   239      5.3   994.6    0.00       0    68.6
 298    4:40   59.8    83    2.4   239      7.2   994.9    0.00       0    68.6
 298    4:50   59.5    84    1.6   346      4.3   994.9    0.00       0    68.6
 298    5:00   59.2    85    2.1     0      4.2   994.9    0.00       0    68.6
 298    5:10   59.4    85    2.4    54      5.7   994.9    0.00       0    68.6
 298    5:20   59.7    84    4.3    45      7.3   994.9    0.00       0    68.5
 298    5:30   59.8    83    2.7    67      7.2   994.9    0.00       0    68.5
 298    5:40   60.0    82    2.2   312      6.2   994.9    0.00       0    68.5
 298    5:50   60.0    83    1.8     9      4.7   994.9    0.00       0    68.5
 298    6:00   60.2    83    1.8   350      4.6   995.3    0.00       0    68.5
 298    6:10   60.0    83    2.8    88      6.8   995.3    0.00       0    68.5
 298    6:20   60.1    83    1.2    92      4.7   995.3    0.00       1    68.4
 298    6:30   59.9    83    1.5   327      6.9   995.3    0.00       3    68.4
 298    6:40   59.9    84    2.1   351      5.8   995.3    0.00       3    68.4
 298    6:50   60.6    83    2.3   323      5.6   995.3    0.00      12    68.4
 298    7:00   61.3    81    3.5   252     11.0   995.6    0.00      16    68.4
 298    7:10   61.3    82    2.7   261     10.2   995.6    0.00      14    68.4
 298    7:20   60.8    86    2.1   334      4.9   995.9    0.00      21    68.3
 298    7:30   60.3    88    2.2   293      6.8   995.9    0.01      18    68.3
 298    7:40   60.2    90    2.2   290      5.8   995.9    0.00      29    68.3
 298    7:50   60.1    90    1.6   304      9.7   996.3    0.01      33    68.3
 298    8:00   60.0    91    3.9   239      9.9   996.6    0.01      30    68.3
 298    8:10   59.3    92    4.1   229      7.8   996.6    0.03      30    68.3
 298    8:20   58.9    94    5.7   231     11.8   997.0    0.02      20    68.3
 298    8:30   58.5    94    5.4   236     11.6   997.0    0.02      19    68.3
 298    8:40   58.5    95    4.0   233      8.2   997.3    0.00      18    68.3
 298    8:50   57.9    95    3.1   243      8.1   997.3    0.01      24    68.3
 298    9:00   58.0    95    2.2   276      5.0   997.6    0.00      23    68.3
 298    9:10   58.1    95    2.2   313      5.0   997.6    0.02      35    68.2
 298    9:20   58.3    95    2.5   239      7.2   997.6    0.01      34    68.2
 298    9:30   58.4    96    2.1   225      5.0   998.0    0.02      43    68.2
 298    9:40   58.4    96    1.9   227      6.3   998.0    0.01     108    68.2
 298    9:50   58.8    96    1.4   256      4.0   998.0    0.01     167    68.2
 298   10:00   58.8    96    2.4   235      4.0   998.0    0.00     118    68.2
 298   10:10   58.8    96    1.9   246      3.9   998.3    0.00     136    68.2
 298   10:20   59.0    96    0.9   269      2.3   998.3    0.01     162    68.2
 298   10:30   59.3    96    2.8    17      6.1   998.3    0.00     297    68.2

Return to Whale Point graphs page.


Western Regional Climate Center,wrcc@dri.edu